createdAt,value
2018-12-14T00:00:09.645Z,5.46
2018-12-14T00:01:09.648Z,5.31
2018-12-14T00:02:09.667Z,5.43
2018-12-14T00:03:09.674Z,5.60
2018-12-14T00:04:09.686Z,5.57
2018-12-14T00:05:09.702Z,5.60
2018-12-14T00:06:09.710Z,5.34
2018-12-14T00:07:09.722Z,5.37
2018-12-14T00:08:09.729Z,5.22
2018-12-14T00:09:09.751Z,5.25
2018-12-14T00:10:09.758Z,5.12
2018-12-14T00:11:09.776Z,5.16
2018-12-14T00:12:09.787Z,5.31
2018-12-14T00:13:09.803Z,5.23
2018-12-14T00:14:09.803Z,5.28
2018-12-14T00:15:09.809Z,5.45
2018-12-14T00:16:09.827Z,5.23
2018-12-14T00:17:09.836Z,5.09
2018-12-14T00:18:09.865Z,5.31
2018-12-14T00:19:09.871Z,5.28
2018-12-14T00:20:09.873Z,5.32
2018-12-14T00:21:09.889Z,5.59
2018-12-14T00:22:09.904Z,5.50
2018-12-14T00:23:09.919Z,5.40
2018-12-14T00:24:09.921Z,5.52
2018-12-14T00:25:09.933Z,5.32
2018-12-14T00:26:09.949Z,5.25
2018-12-14T00:27:09.952Z,5.40
2018-12-14T00:28:09.966Z,5.37
2018-12-14T00:29:10.000Z,5.25
2018-12-14T00:30:09.991Z,5.16
2018-12-14T00:31:10.021Z,5.28
2018-12-14T00:32:10.016Z,5.43
2018-12-14T00:33:10.028Z,5.66
2018-12-14T00:34:10.033Z,5.64
2018-12-14T00:35:10.051Z,5.46
2018-12-14T00:36:10.062Z,5.38
2018-12-14T00:37:10.068Z,5.27
2018-12-14T00:38:10.084Z,5.13
2018-12-14T00:39:10.133Z,5.30
2018-12-14T00:40:10.108Z,5.46
2018-12-14T00:41:10.147Z,5.38
2018-12-14T00:42:10.134Z,5.30
2018-12-14T00:43:10.146Z,5.30
2018-12-14T00:44:10.149Z,5.41
2018-12-14T00:45:10.161Z,5.09
2018-12-14T00:46:10.233Z,5.12
2018-12-14T00:47:10.187Z,5.23
2018-12-14T00:48:10.318Z,5.35
2018-12-14T00:49:10.205Z,5.05
2018-12-14T00:50:10.224Z,5.32
2018-12-14T00:51:10.244Z,5.17
2018-12-14T00:52:10.255Z,4.99
2018-12-14T00:53:10.252Z,5.10
2018-12-14T00:54:10.261Z,5.27
2018-12-14T00:55:10.271Z,5.37
2018-12-14T00:56:10.290Z,5.22
2018-12-14T00:57:10.298Z,5.27
2018-12-14T00:59:10.337Z,5.34
2018-12-14T01:00:10.334Z,5.38
2018-12-14T01:01:10.352Z,5.52
2018-12-14T01:02:10.377Z,5.28
2018-12-14T01:03:10.405Z,5.25
2018-12-14T01:04:10.388Z,5.37
2018-12-14T01:05:10.403Z,5.35
2018-12-14T01:06:10.407Z,5.40
2018-12-14T01:07:10.429Z,5.43
2018-12-14T01:08:10.422Z,5.49
2018-12-14T01:09:10.451Z,5.41
2018-12-14T01:10:10.451Z,5.55
2018-12-14T01:11:10.460Z,5.32
2018-12-14T01:12:10.474Z,5.22
2018-12-14T01:13:10.481Z,5.49
2018-12-14T01:14:10.538Z,5.53
2018-12-14T01:15:10.506Z,5.43
2018-12-14T01:16:10.519Z,5.37
2018-12-14T01:17:10.530Z,5.52
2018-12-14T01:18:10.539Z,5.19
2018-12-14T01:19:10.556Z,5.37
2018-12-14T01:20:10.610Z,5.30
2018-12-14T01:21:10.588Z,5.16
2018-12-14T01:22:10.642Z,5.27
2018-12-14T01:23:10.599Z,5.38
2018-12-14T01:25:10.619Z,5.27
2018-12-14T01:26:10.634Z,5.19
2018-12-14T01:27:10.645Z,5.35
2018-12-14T01:28:10.674Z,5.19
2018-12-14T01:29:10.685Z,4.98
2018-12-14T01:30:10.682Z,4.98
2018-12-14T01:31:10.689Z,4.94
2018-12-14T01:32:10.708Z,5.14
2018-12-14T01:33:10.712Z,5.32
2018-12-14T01:34:10.721Z,5.38
2018-12-14T01:35:10.730Z,5.12
2018-12-14T01:36:10.743Z,5.04
2018-12-14T01:37:10.768Z,5.23
2018-12-14T01:38:10.776Z,5.14
2018-12-14T01:39:10.785Z,5.28
2018-12-14T01:40:10.803Z,5.12
2018-12-14T01:41:10.811Z,5.35
2018-12-14T01:42:10.818Z,5.22
2018-12-14T01:43:10.825Z,5.32
2018-12-14T01:44:10.850Z,5.41
2018-12-14T01:45:10.854Z,5.25
2018-12-14T01:46:10.867Z,5.16
2018-12-14T01:47:10.874Z,5.04
2018-12-14T01:48:10.881Z,5.14
2018-12-14T01:49:10.904Z,5.19
2018-12-14T01:50:10.904Z,5.22
2018-12-14T01:51:10.920Z,5.41
2018-12-14T01:52:10.931Z,5.35
2018-12-14T01:53:10.940Z,5.43
2018-12-14T01:54:10.951Z,5.35
2018-12-14T01:55:10.956Z,5.20
2018-12-14T01:56:10.969Z,5.35
2018-12-14T01:57:10.981Z,5.12
2018-12-14T01:58:10.995Z,5.04
2018-12-14T01:59:11.007Z,5.12
2018-12-14T02:00:11.035Z,5.25
2018-12-14T02:01:11.034Z,5.31
2018-12-14T02:02:11.046Z,5.09
2018-12-14T02:03:32.063Z,5.12
2018-12-14T02:04:11.062Z,5.02
2018-12-14T02:05:11.076Z,5.43
2018-12-14T02:06:11.086Z,5.34
2018-12-14T02:07:11.101Z,5.37
2018-12-14T02:08:11.105Z,5.25
2018-12-14T02:09:11.118Z,5.32
2018-12-14T02:10:11.143Z,5.12
2018-12-14T02:11:11.218Z,5.10
2018-12-14T02:12:11.574Z,5.09
2018-12-14T02:13:11.165Z,5.23
2018-12-14T02:14:11.181Z,5.22
2018-12-14T02:15:11.188Z,5.37
2018-12-14T02:16:11.197Z,5.28
2018-12-14T02:17:11.218Z,5.20
2018-12-14T02:18:11.219Z,5.32
2018-12-14T02:19:11.234Z,5.25
2018-12-14T02:20:11.242Z,5.20
2018-12-14T02:21:11.254Z,5.37
2018-12-14T02:22:11.286Z,5.53
2018-12-14T02:23:11.281Z,5.49
2018-12-14T02:24:11.292Z,5.43
2018-12-14T02:25:11.336Z,5.50
2018-12-14T02:26:11.318Z,5.31
2018-12-14T02:27:11.326Z,5.34
2018-12-14T02:28:11.418Z,5.49
2018-12-14T02:29:11.346Z,5.30
2018-12-14T02:30:11.376Z,5.32
2018-12-14T02:31:11.377Z,5.45
2018-12-14T02:32:11.389Z,5.28
2018-12-14T02:33:11.395Z,5.22
2018-12-14T02:34:11.419Z,5.35
2018-12-14T02:35:11.421Z,5.46
2018-12-14T02:36:11.433Z,5.38
2018-12-14T02:37:11.451Z,5.28
2018-12-14T02:38:11.452Z,5.32
2018-12-14T02:39:11.469Z,5.16
2018-12-14T02:40:11.474Z,5.31
2018-12-14T02:41:11.529Z,5.13
2018-12-14T02:42:19.108Z,5.34
2018-12-14T02:43:11.527Z,5.10
2018-12-14T02:44:11.527Z,5.30
2018-12-14T02:45:11.592Z,5.31
2018-12-14T02:46:11.543Z,5.27
2018-12-14T02:47:11.557Z,5.37
2018-12-14T02:48:11.566Z,5.17
2018-12-14T02:49:11.576Z,5.19
2018-12-14T02:50:11.589Z,5.13
2018-12-14T02:51:11.602Z,5.04
2018-12-14T02:52:11.609Z,5.16
2018-12-14T02:53:11.639Z,5.19
2018-12-14T02:54:11.643Z,5.27
2018-12-14T02:55:11.652Z,5.28
2018-12-14T02:56:11.656Z,5.22
2018-12-14T02:57:11.674Z,5.14
2018-12-14T02:58:11.688Z,5.13
2018-12-14T02:59:11.689Z,4.99
2018-12-14T03:00:11.706Z,4.92
2018-12-14T03:01:11.715Z,5.09
2018-12-14T03:02:11.736Z,5.31
2018-12-14T03:03:11.737Z,5.19
2018-12-14T03:04:11.755Z,5.10
2018-12-14T03:05:11.758Z,5.27
2018-12-14T03:06:11.772Z,5.37
2018-12-14T03:07:11.787Z,5.17
2018-12-14T03:08:11.805Z,5.12
2018-12-14T03:09:11.806Z,5.17
2018-12-14T03:10:11.819Z,5.10
2018-12-14T03:11:11.825Z,5.34
2018-12-14T03:12:11.843Z,5.32
2018-12-14T03:13:11.853Z,5.34
2018-12-14T03:14:11.866Z,5.41
2018-12-14T03:15:11.881Z,5.43
2018-12-14T03:16:11.888Z,5.13
2018-12-14T03:17:11.905Z,5.07
2018-12-14T03:18:11.910Z,5.13
2018-12-14T03:20:11.948Z,5.14
2018-12-14T03:21:11.953Z,5.23
2018-12-14T03:22:11.959Z,5.12
2018-12-14T03:23:11.971Z,5.16
2018-12-14T03:24:11.992Z,5.12
2018-12-14T03:25:12.001Z,5.41
2018-12-14T03:26:12.002Z,5.38
2018-12-14T03:27:12.012Z,5.25
2018-12-14T03:28:12.028Z,5.32
2018-12-14T03:29:12.043Z,5.38
2018-12-14T03:30:12.055Z,5.56
2018-12-14T03:31:12.071Z,5.14
2018-12-14T03:32:12.077Z,5.05
2018-12-14T03:33:12.087Z,5.16
2018-12-14T03:34:12.118Z,5.19
2018-12-14T03:35:12.115Z,5.27
2018-12-14T03:36:12.122Z,5.32
2018-12-14T03:37:12.137Z,5.38
2018-12-14T03:38:12.147Z,5.48
2018-12-14T03:39:12.151Z,5.38
2018-12-14T03:40:12.167Z,5.09
2018-12-14T03:41:12.175Z,5.05
2018-12-14T03:42:12.190Z,5.04
2018-12-14T03:43:12.206Z,5.12
2018-12-14T03:44:12.211Z,5.30
2018-12-14T03:45:12.224Z,5.23
2018-12-14T03:46:12.235Z,5.19
2018-12-14T03:47:12.269Z,5.31
2018-12-14T03:48:12.278Z,5.31
2018-12-14T03:49:12.265Z,5.09
2018-12-14T03:50:12.281Z,5.34
2018-12-14T03:51:12.299Z,5.41
2018-12-14T03:52:12.319Z,5.37
2018-12-14T03:53:12.350Z,5.46
2018-12-14T03:54:12.336Z,5.32
2018-12-14T03:55:12.342Z,5.35
2018-12-14T03:56:12.350Z,5.35
2018-12-14T03:57:12.365Z,5.12
2018-12-14T03:58:12.373Z,5.28
2018-12-14T03:59:12.388Z,5.35
2018-12-14T04:00:12.399Z,5.38
2018-12-14T04:01:12.402Z,5.31
2018-12-14T04:02:12.421Z,5.22
2018-12-14T04:03:12.430Z,5.25
2018-12-14T04:04:12.575Z,5.13
2018-12-14T04:05:12.450Z,5.28
2018-12-14T04:06:12.469Z,5.32
2018-12-14T04:07:12.485Z,5.37
2018-12-14T04:08:12.485Z,5.17
2018-12-14T04:09:12.500Z,5.28
2018-12-14T04:10:12.537Z,5.17
2018-12-14T04:11:12.524Z,5.17
2018-12-14T04:12:12.549Z,5.12
2018-12-14T04:13:12.540Z,5.12
2018-12-14T04:14:12.560Z,5.16
2018-12-14T04:15:12.566Z,5.19
2018-12-14T04:16:12.577Z,5.25
2018-12-14T04:17:12.592Z,4.92
2018-12-14T04:18:12.600Z,5.05
2018-12-14T04:19:12.610Z,5.09
2018-12-14T04:20:12.622Z,5.09
2018-12-14T04:21:12.743Z,5.16
2018-12-14T04:22:12.667Z,5.12
2018-12-14T04:23:12.657Z,5.16
2018-12-14T04:24:12.676Z,5.25
2018-12-14T04:25:12.687Z,5.12
2018-12-14T04:26:12.691Z,5.14
2018-12-14T04:27:12.705Z,5.07
2018-12-14T04:28:12.719Z,5.20
2018-12-14T04:29:12.725Z,5.13
2018-12-14T04:30:12.759Z,5.13
2018-12-14T04:31:12.755Z,4.94
2018-12-14T04:32:12.761Z,5.10
2018-12-14T04:33:12.772Z,4.99
2018-12-14T04:34:12.781Z,5.12
2018-12-14T04:35:12.794Z,5.14
2018-12-14T04:36:12.917Z,5.22
2018-12-14T04:37:12.813Z,5.13
2018-12-14T04:38:12.919Z,5.13
2018-12-14T04:39:12.838Z,5.34
2018-12-14T04:40:12.855Z,5.27
2018-12-14T04:41:12.880Z,5.27
2018-12-14T04:42:12.883Z,5.40
2018-12-14T04:43:12.891Z,5.30
2018-12-14T04:44:12.898Z,5.30
2018-12-14T04:45:12.906Z,5.37
2018-12-14T04:46:12.918Z,5.25
2018-12-14T04:47:12.930Z,5.22
2018-12-14T04:48:12.948Z,5.09
2018-12-14T04:49:12.954Z,5.12
2018-12-14T04:50:12.968Z,5.32
2018-12-14T04:51:12.986Z,5.34
2018-12-14T04:52:12.992Z,5.16
2018-12-14T04:53:13.091Z,5.09
2018-12-14T04:54:13.028Z,5.32
2018-12-14T04:55:13.047Z,5.12
2018-12-14T04:56:13.512Z,4.99
2018-12-14T04:57:13.056Z,5.12
2018-12-14T04:58:13.063Z,4.96
2018-12-14T04:59:13.109Z,4.95
2018-12-14T05:00:13.085Z,5.09
2018-12-14T05:01:13.098Z,5.32
2018-12-14T05:02:13.114Z,5.17
2018-12-14T05:03:13.114Z,5.09
2018-12-14T05:04:13.132Z,5.07
2018-12-14T05:05:13.158Z,5.10
2018-12-14T05:06:13.153Z,5.12
2018-12-14T05:07:13.160Z,5.13
2018-12-14T05:08:13.184Z,5.13
2018-12-14T05:09:13.193Z,5.28
2018-12-14T05:10:13.213Z,5.07
2018-12-14T05:11:13.210Z,5.23
2018-12-14T05:12:13.284Z,5.32
2018-12-14T05:13:13.248Z,4.94
2018-12-14T05:14:13.246Z,5.14
2018-12-14T05:15:13.253Z,5.05
2018-12-14T05:16:13.261Z,5.20
2018-12-14T05:17:13.279Z,5.31
2018-12-14T05:19:13.298Z,5.05
2018-12-14T05:20:13.310Z,5.07
2018-12-14T05:22:13.338Z,5.09
2018-12-14T05:23:13.344Z,5.14
2018-12-14T05:24:13.371Z,5.12
2018-12-14T05:25:13.373Z,5.28
2018-12-14T05:26:13.379Z,5.25
2018-12-14T05:27:13.459Z,5.01
2018-12-14T05:28:13.406Z,4.96
2018-12-14T05:29:13.416Z,4.98
2018-12-14T05:30:13.426Z,4.98
2018-12-14T05:31:13.444Z,5.04
2018-12-14T05:32:13.460Z,5.14
2018-12-14T05:33:13.522Z,5.20
2018-12-14T05:34:13.473Z,5.14
2018-12-14T05:35:13.486Z,4.95
2018-12-14T05:36:13.518Z,5.13
2018-12-14T05:37:13.510Z,5.10
2018-12-14T05:38:13.521Z,5.25
2018-12-14T05:39:13.545Z,5.20
2018-12-14T05:40:13.555Z,5.07
2018-12-14T05:41:13.549Z,5.23
2018-12-14T05:42:13.565Z,5.23
2018-12-14T05:43:13.588Z,5.10
2018-12-14T05:44:13.596Z,5.07
2018-12-14T05:45:13.598Z,5.14
2018-12-14T05:46:13.610Z,5.19
2018-12-14T05:47:13.667Z,5.32
2018-12-14T05:48:13.647Z,5.17
2018-12-14T05:49:13.646Z,5.17
2018-12-14T05:50:13.661Z,5.35
2018-12-14T05:51:13.668Z,5.34
2018-12-14T05:52:13.680Z,5.34
2018-12-14T05:53:13.691Z,5.14
2018-12-14T05:54:13.706Z,5.12
2018-12-14T05:55:13.723Z,5.16
2018-12-14T05:56:13.740Z,5.12
2018-12-14T05:57:13.742Z,5.31
2018-12-14T05:58:13.749Z,5.38
2018-12-14T05:59:13.777Z,5.25
2018-12-14T06:00:13.774Z,5.34
2018-12-14T06:01:13.901Z,5.31
2018-12-14T06:02:13.796Z,5.35
2018-12-14T06:03:13.806Z,5.35
2018-12-14T06:04:13.825Z,5.30
2018-12-14T06:05:13.840Z,5.34
2018-12-14T06:06:13.868Z,5.17
2018-12-14T06:07:13.854Z,5.30
2018-12-14T06:08:13.872Z,5.27
2018-12-14T06:09:14.879Z,5.31
2018-12-14T06:10:13.903Z,5.35
2018-12-14T06:11:13.906Z,5.45
2018-12-14T06:12:13.925Z,5.25
2018-12-14T06:13:13.934Z,4.96
2018-12-14T06:14:13.937Z,4.94
2018-12-14T06:15:13.946Z,5.14
2018-12-14T06:16:13.960Z,5.01
2018-12-14T06:17:13.975Z,5.13
2018-12-14T06:18:14.069Z,5.31
2018-12-14T06:19:13.996Z,5.22
2018-12-14T06:20:14.010Z,5.13
2018-12-14T06:21:14.020Z,5.32
2018-12-14T06:22:14.037Z,5.37
2018-12-14T06:23:14.045Z,5.30
2018-12-14T06:24:14.067Z,5.40
2018-12-14T06:25:14.068Z,5.38
2018-12-14T06:26:14.081Z,5.34
2018-12-14T06:27:14.093Z,5.31
2018-12-14T06:28:14.119Z,5.20
2018-12-14T06:29:14.119Z,5.17
2018-12-14T06:30:14.131Z,5.07
2018-12-14T06:31:14.148Z,5.02
2018-12-14T06:32:14.165Z,5.16
2018-12-14T06:33:14.166Z,5.23
2018-12-14T06:34:14.172Z,5.13
2018-12-14T06:35:14.216Z,5.32
2018-12-14T06:36:14.213Z,5.31
2018-12-14T06:37:14.207Z,5.13
2018-12-14T06:38:14.231Z,5.09
2018-12-14T06:39:14.234Z,5.12
2018-12-14T06:40:14.242Z,4.94
2018-12-14T06:41:14.327Z,5.01
2018-12-14T06:42:14.271Z,5.13
2018-12-14T06:43:15.575Z,5.12
2018-12-14T06:44:14.290Z,4.95
2018-12-14T06:45:14.305Z,5.12
2018-12-14T06:46:14.314Z,5.19
2018-12-14T06:47:14.322Z,5.13
2018-12-14T06:48:14.351Z,5.09
2018-12-14T06:49:14.359Z,4.96
2018-12-14T06:50:14.377Z,5.09
2018-12-14T06:51:14.371Z,5.05
2018-12-14T06:52:14.447Z,5.14
2018-12-14T06:53:14.398Z,5.19
2018-12-14T06:54:14.430Z,4.99
2018-12-14T06:55:14.423Z,5.14
2018-12-14T06:56:14.443Z,5.13
2018-12-14T06:57:14.451Z,5.23
2018-12-14T06:58:14.456Z,5.16
2018-12-14T06:59:14.469Z,5.07
2018-12-14T07:00:14.479Z,5.13
2018-12-14T07:01:14.506Z,5.31
2018-12-14T07:02:14.498Z,5.35
2018-12-14T07:03:15.066Z,5.25
2018-12-14T07:04:14.530Z,5.32
2018-12-14T07:05:14.544Z,5.37
2018-12-14T07:06:14.552Z,5.32
2018-12-14T07:07:14.569Z,5.31
2018-12-14T07:08:14.590Z,5.14
2018-12-14T07:09:14.599Z,5.23
2018-12-14T07:10:14.604Z,5.12
2018-12-14T07:11:14.637Z,5.19
2018-12-14T07:12:14.637Z,5.12
2018-12-14T07:13:14.658Z,5.12
2018-12-14T07:14:14.664Z,5.13
2018-12-14T07:15:14.701Z,5.34
2018-12-14T07:16:14.670Z,5.09
2018-12-14T07:17:14.678Z,5.07
2018-12-14T07:18:14.693Z,5.17
2018-12-14T07:19:14.717Z,5.30
2018-12-14T07:20:14.735Z,5.25
2018-12-14T07:21:14.746Z,5.12
2018-12-14T07:22:14.746Z,5.17
2018-12-14T07:23:14.750Z,5.32
2018-12-14T07:24:14.767Z,5.30
2018-12-14T07:25:14.774Z,5.35
2018-12-14T07:26:14.830Z,5.41
2018-12-14T07:27:14.799Z,5.40
2018-12-14T07:28:14.841Z,5.35
2018-12-14T07:29:14.836Z,5.20
2018-12-14T07:30:14.859Z,5.17
2018-12-14T07:31:14.850Z,4.98
2018-12-14T07:32:14.870Z,4.99
2018-12-14T07:33:14.873Z,5.27
2018-12-14T07:34:14.889Z,5.27
2018-12-14T07:35:14.893Z,5.13
2018-12-14T07:36:14.903Z,5.04
2018-12-14T07:37:14.923Z,5.04
2018-12-14T07:38:14.944Z,5.10
2018-12-14T07:39:14.948Z,5.09
2018-12-14T07:40:14.952Z,5.19
2018-12-14T07:41:14.963Z,5.02
2018-12-14T07:42:15.001Z,5.14
2018-12-14T07:43:15.041Z,5.12
2018-12-14T07:44:15.004Z,5.12
2018-12-14T07:45:15.014Z,5.12
2018-12-14T07:46:15.028Z,5.27
2018-12-14T07:47:15.043Z,5.16
2018-12-14T07:48:15.050Z,5.28
2018-12-14T07:49:15.057Z,5.12
2018-12-14T07:50:15.067Z,5.25
2018-12-14T07:52:15.106Z,5.45
2018-12-14T07:53:15.109Z,5.30
2018-12-14T07:54:15.119Z,5.38
2018-12-14T07:55:15.132Z,5.34
2018-12-14T07:56:15.146Z,5.32
2018-12-14T07:57:15.151Z,5.01
2018-12-14T07:58:15.175Z,5.13
2018-12-14T07:59:15.179Z,5.07
2018-12-14T08:00:15.257Z,5.17
2018-12-14T08:01:15.237Z,5.09
2018-12-14T08:02:15.207Z,5.34
2018-12-14T08:03:15.221Z,5.37
2018-12-14T08:04:15.234Z,5.01
2018-12-14T08:05:15.250Z,4.94
2018-12-14T08:06:15.275Z,4.91
2018-12-14T08:07:15.272Z,5.01
2018-12-14T08:08:15.279Z,4.86
2018-12-14T08:09:15.292Z,5.04
2018-12-14T08:10:15.302Z,5.05
2018-12-14T08:11:15.431Z,5.14
2018-12-14T08:12:15.345Z,5.10
2018-12-14T08:13:15.348Z,5.10
2018-12-14T08:14:15.361Z,5.14
2018-12-14T08:15:15.369Z,5.16
2018-12-14T08:16:15.391Z,5.25
2018-12-14T08:17:15.389Z,5.30
2018-12-14T08:18:15.416Z,5.05
2018-12-14T08:19:15.417Z,5.16
2018-12-14T08:20:17.293Z,5.12
2018-12-14T08:21:15.441Z,5.25
2018-12-14T08:22:15.447Z,5.25
2018-12-14T08:23:15.460Z,5.35
2018-12-14T08:24:15.476Z,5.27
2018-12-14T08:25:15.492Z,5.37
2018-12-14T08:26:15.510Z,5.43
2018-12-14T08:27:15.512Z,5.34
2018-12-14T08:28:15.557Z,5.37
2018-12-14T08:29:15.529Z,5.28
2018-12-14T08:30:15.538Z,5.31
2018-12-14T08:31:15.548Z,5.40
2018-12-14T08:32:15.561Z,5.48
2018-12-14T08:33:15.579Z,5.16
2018-12-14T08:34:15.608Z,5.17
2018-12-14T08:35:15.609Z,5.27
2018-12-14T08:36:15.608Z,5.25
2018-12-14T08:37:15.622Z,5.38
2018-12-14T08:38:15.655Z,5.30
2018-12-14T08:39:15.707Z,5.25
2018-12-14T08:40:15.663Z,5.23
2018-12-14T08:41:15.679Z,5.13
2018-12-14T08:42:15.674Z,5.16
2018-12-14T08:43:15.752Z,5.17
2018-12-14T08:44:15.701Z,5.28
2018-12-14T08:45:15.885Z,5.30
2018-12-14T08:46:15.741Z,5.35
2018-12-14T08:47:15.737Z,5.12
2018-12-14T08:48:15.746Z,5.13
2018-12-14T08:49:15.769Z,5.20
2018-12-14T08:50:15.776Z,5.22
2018-12-14T08:51:15.784Z,5.23
2018-12-14T08:52:15.795Z,5.25
2018-12-14T08:53:15.807Z,5.31
2018-12-14T08:54:15.830Z,5.25
2018-12-14T08:55:15.826Z,5.25
2018-12-14T08:56:15.861Z,5.35
2018-12-14T08:57:15.862Z,5.19
2018-12-14T08:58:15.865Z,5.12
2018-12-14T08:59:15.892Z,5.22
2018-12-14T09:00:15.958Z,5.01
2018-12-14T09:02:15.996Z,4.99
2018-12-14T09:03:15.925Z,5.05
2018-12-14T09:04:15.942Z,5.17
2018-12-14T09:05:15.960Z,5.34
2018-12-14T09:06:15.963Z,5.28
2018-12-14T09:07:15.981Z,4.96
2018-12-14T09:08:15.992Z,5.01
2018-12-14T09:09:16.000Z,5.05
2018-12-14T09:10:16.007Z,5.10
2018-12-14T09:11:16.028Z,5.19
2018-12-14T09:12:16.030Z,5.22
2018-12-14T09:13:16.046Z,5.22
2018-12-14T09:14:16.105Z,5.30
2018-12-14T09:15:16.083Z,5.35
2018-12-14T09:16:16.082Z,5.27
2018-12-14T09:17:16.127Z,5.16
2018-12-14T09:18:16.174Z,5.19
2018-12-14T09:19:16.116Z,5.22
2018-12-14T09:20:16.198Z,4.94
2018-12-14T09:21:16.182Z,4.95
2018-12-14T09:22:16.146Z,5.12
2018-12-14T09:23:16.161Z,5.27
2018-12-14T09:24:16.184Z,5.13
2018-12-14T09:25:16.185Z,5.31
2018-12-14T09:26:16.195Z,5.31
2018-12-14T09:27:16.207Z,5.34
2018-12-14T09:28:16.221Z,5.38
2018-12-14T09:29:16.232Z,5.27
2018-12-14T09:30:16.241Z,5.31
2018-12-14T09:31:16.257Z,5.32
2018-12-14T09:32:16.269Z,5.23
2018-12-14T09:33:16.272Z,5.38
2018-12-14T09:34:16.295Z,5.38
2018-12-14T09:35:16.307Z,5.41
2018-12-14T09:36:16.311Z,5.35
2018-12-14T09:37:16.367Z,5.31
2018-12-14T09:38:16.331Z,5.32
2018-12-14T09:39:16.352Z,5.34
2018-12-14T09:40:16.360Z,5.35
2018-12-14T09:41:16.497Z,5.22
2018-12-14T09:42:16.398Z,5.30
2018-12-14T09:43:16.393Z,5.31
2018-12-14T09:44:16.411Z,5.32
2018-12-14T09:45:16.430Z,5.30
2018-12-14T09:46:16.435Z,5.35
2018-12-14T09:47:16.468Z,5.38
2018-12-14T09:48:16.466Z,5.32
2018-12-14T09:49:16.468Z,5.17
2018-12-14T09:50:16.473Z,5.25
2018-12-14T09:51:16.498Z,5.23
2018-12-14T09:52:16.544Z,5.32
2018-12-14T09:53:16.509Z,5.35
2018-12-14T09:54:16.540Z,5.46
2018-12-14T09:55:16.525Z,5.34
2018-12-14T09:56:16.550Z,5.45
2018-12-14T09:57:16.558Z,5.48
2018-12-14T09:58:16.575Z,5.37
2018-12-14T09:59:16.618Z,5.25
2018-12-14T10:00:16.591Z,5.22
2018-12-14T10:01:16.605Z,5.25
2018-12-14T10:02:16.675Z,5.38
2018-12-14T10:03:16.698Z,5.32
2018-12-14T10:04:16.703Z,5.43
2018-12-14T10:05:16.674Z,5.35
2018-12-14T10:06:16.705Z,5.30
2018-12-14T10:07:16.713Z,5.34
2018-12-14T10:08:16.699Z,5.28
2018-12-14T10:09:16.714Z,5.31
2018-12-14T10:10:16.727Z,5.28
2018-12-14T10:11:16.739Z,5.52
2018-12-14T10:12:16.745Z,5.48
2018-12-14T10:14:16.758Z,5.43
2018-12-14T10:15:16.772Z,5.43
2018-12-14T10:16:16.783Z,5.45
2018-12-14T10:17:16.799Z,5.41
2018-12-14T10:18:16.849Z,5.41
2018-12-14T10:19:16.854Z,5.55
2018-12-14T10:20:16.859Z,5.34
2018-12-14T10:21:16.968Z,5.49
2018-12-14T10:22:16.856Z,5.22
2018-12-14T10:23:16.864Z,5.32
2018-12-14T10:24:16.878Z,5.25
2018-12-14T10:25:16.890Z,5.35
2018-12-14T10:26:16.904Z,5.38
2018-12-14T10:27:16.912Z,5.13
2018-12-14T10:28:16.920Z,5.16
2018-12-14T10:29:16.939Z,5.09
2018-12-14T10:30:16.949Z,5.34
2018-12-14T10:31:16.957Z,5.35
2018-12-14T10:32:16.977Z,5.38
2018-12-14T10:33:16.988Z,5.46
2018-12-14T10:34:16.991Z,5.45
2018-12-14T10:35:17.010Z,5.57
2018-12-14T10:36:17.032Z,5.59
2018-12-14T10:37:17.029Z,5.38
2018-12-14T10:38:17.054Z,5.37
2018-12-14T10:39:17.053Z,5.31
2018-12-14T10:40:17.068Z,5.41
2018-12-14T10:41:17.076Z,5.50
2018-12-14T10:42:17.143Z,5.55
2018-12-14T10:43:17.102Z,5.43
2018-12-14T10:44:17.112Z,5.57
2018-12-14T10:45:17.123Z,5.48
2018-12-14T10:46:17.144Z,5.49
2018-12-14T10:47:17.168Z,5.41
2018-12-14T10:48:17.173Z,5.60
2018-12-14T10:49:17.191Z,5.57
2018-12-14T10:50:17.189Z,5.48
2018-12-14T10:51:17.255Z,5.40
2018-12-14T10:52:17.211Z,5.48
2018-12-14T10:53:17.332Z,5.48
2018-12-14T10:54:17.236Z,5.48
2018-12-14T10:55:17.243Z,5.48
2018-12-14T10:56:17.313Z,5.59
2018-12-14T10:57:17.269Z,5.52
2018-12-14T10:58:17.277Z,5.45
2018-12-14T10:59:17.304Z,5.41
2018-12-14T11:00:17.316Z,5.37
2018-12-14T11:01:17.316Z,5.35
2018-12-14T11:02:17.335Z,5.40
2018-12-14T11:03:17.350Z,5.32
2018-12-14T11:04:17.361Z,5.48
2018-12-14T11:05:17.367Z,5.53
2018-12-14T11:06:17.378Z,5.49
2018-12-14T11:07:17.388Z,5.49
2018-12-14T11:08:17.403Z,5.59
2018-12-14T11:09:17.415Z,5.37
2018-12-14T11:10:17.460Z,5.13
2018-12-14T11:11:17.454Z,5.28
2018-12-14T11:12:17.460Z,5.43
2018-12-14T11:13:17.455Z,5.53
2018-12-14T11:14:17.494Z,5.45
2018-12-14T11:15:17.480Z,5.52
2018-12-14T11:16:17.490Z,5.56
2018-12-14T11:17:17.510Z,5.40
2018-12-14T11:18:17.517Z,5.23
2018-12-14T11:19:17.531Z,5.25
2018-12-14T11:20:17.541Z,5.35
2018-12-14T11:21:17.554Z,5.22
2018-12-14T11:22:17.632Z,5.38
2018-12-14T11:23:17.573Z,5.52
2018-12-14T11:24:17.605Z,5.37
2018-12-14T11:25:17.599Z,5.22
2018-12-14T11:26:17.607Z,5.35
2018-12-14T11:27:17.771Z,5.40
2018-12-14T11:28:17.641Z,5.46
2018-12-14T11:29:17.645Z,5.37
2018-12-14T11:30:17.661Z,5.57
2018-12-14T11:31:17.669Z,5.50
2018-12-14T11:32:17.681Z,5.32
2018-12-14T11:33:17.692Z,5.30
2018-12-14T11:34:17.722Z,5.46
2018-12-14T11:35:17.716Z,5.59
2018-12-14T11:36:17.724Z,5.67
2018-12-14T11:37:17.742Z,5.67
2018-12-14T11:38:17.760Z,5.40
2018-12-14T11:39:17.766Z,5.45
2018-12-14T11:40:17.789Z,5.60
2018-12-14T11:41:18.582Z,5.45
2018-12-14T11:42:17.800Z,5.52
2018-12-14T11:43:17.805Z,5.49
2018-12-14T11:45:17.830Z,5.31
2018-12-14T11:46:17.847Z,5.43
2018-12-14T11:47:18.319Z,5.34
2018-12-14T11:48:17.868Z,5.48
2018-12-14T11:49:17.886Z,5.59
2018-12-14T11:50:17.894Z,5.59
2018-12-14T11:51:17.910Z,5.67
2018-12-14T11:52:17.917Z,5.63
2018-12-14T11:53:17.927Z,5.55
2018-12-14T11:54:17.960Z,5.66
2018-12-14T11:55:17.955Z,5.50
2018-12-14T11:56:17.963Z,5.55
2018-12-14T11:57:17.973Z,5.53
2018-12-14T11:58:18.019Z,5.52
2018-12-14T11:59:18.009Z,5.67
2018-12-14T12:00:18.016Z,5.43
2018-12-14T12:01:18.099Z,5.59
2018-12-14T12:02:18.044Z,5.43
2018-12-14T12:03:18.062Z,5.63
2018-12-14T12:04:18.059Z,5.68
2018-12-14T12:05:18.094Z,5.70
2018-12-14T12:06:18.088Z,5.60
2018-12-14T12:07:18.096Z,5.74
2018-12-14T12:08:18.107Z,5.75
2018-12-14T12:09:18.121Z,5.74
2018-12-14T12:10:18.136Z,5.70
2018-12-14T12:11:18.144Z,5.78
2018-12-14T12:12:18.161Z,5.75
2018-12-14T12:13:18.169Z,5.71
2018-12-14T12:14:18.226Z,5.43
2018-12-14T12:15:18.207Z,5.60
2018-12-14T12:16:18.212Z,5.55
2018-12-14T12:17:21.238Z,5.50
2018-12-14T12:18:18.234Z,5.46
2018-12-14T12:19:18.239Z,5.53
2018-12-14T12:20:18.262Z,5.63
2018-12-14T12:21:18.285Z,5.70
2018-12-14T12:22:18.284Z,5.52
2018-12-14T12:23:18.293Z,5.59
2018-12-14T12:24:18.312Z,5.73
2018-12-14T12:25:18.316Z,5.75
2018-12-14T12:26:18.324Z,5.49
2018-12-14T12:27:18.481Z,5.53
2018-12-14T12:28:18.358Z,5.46
2018-12-14T12:29:18.358Z,5.57
2018-12-14T12:30:18.374Z,5.59
2018-12-14T12:31:18.401Z,5.59
2018-12-14T12:32:18.398Z,5.60
2018-12-14T12:33:18.445Z,5.56
2018-12-14T12:34:18.450Z,5.41
2018-12-14T12:35:18.491Z,5.56
2018-12-14T12:36:18.443Z,5.53
2018-12-14T12:37:18.471Z,5.67
2018-12-14T12:38:18.478Z,5.63
2018-12-14T12:39:18.486Z,5.49
2018-12-14T12:40:18.495Z,5.56
2018-12-14T12:41:18.521Z,5.53
2018-12-14T12:42:18.529Z,5.49
2018-12-14T12:43:18.532Z,5.67
2018-12-14T12:44:18.571Z,5.78
2018-12-14T12:45:18.555Z,5.70
2018-12-14T12:46:18.565Z,5.60
2018-12-14T12:47:18.584Z,5.63
2018-12-14T12:48:18.593Z,5.59
2018-12-14T12:49:18.608Z,5.59
2018-12-14T12:50:18.633Z,5.43
2018-12-14T12:51:18.629Z,5.38
2018-12-14T12:52:18.702Z,5.52
2018-12-14T12:53:18.650Z,5.59
2018-12-14T12:54:18.675Z,5.60
2018-12-14T12:55:18.669Z,5.66
2018-12-14T12:56:18.691Z,5.67
2018-12-14T12:57:18.700Z,5.57
2018-12-14T12:58:18.714Z,5.57
2018-12-14T12:59:18.722Z,5.57
2018-12-14T13:00:18.740Z,5.60
2018-12-14T13:01:18.751Z,5.68
2018-12-14T13:02:18.769Z,5.53
2018-12-14T13:03:18.810Z,5.43
2018-12-14T13:04:18.785Z,5.50
2018-12-14T13:05:18.792Z,5.31
2018-12-14T13:06:18.808Z,5.43
2018-12-14T13:07:18.831Z,5.28
2018-12-14T13:08:18.826Z,5.46
2018-12-14T13:09:18.854Z,5.59
2018-12-14T13:10:18.851Z,5.56
2018-12-14T13:11:18.868Z,5.53
2018-12-14T13:12:18.881Z,5.56
2018-12-14T13:13:18.897Z,5.55
2018-12-14T13:14:18.966Z,5.64
2018-12-14T13:15:18.917Z,5.60
2018-12-14T13:16:18.927Z,5.66
2018-12-14T13:17:18.939Z,5.40
2018-12-14T13:18:18.949Z,5.64
2018-12-14T13:19:18.966Z,5.60
2018-12-14T13:20:19.070Z,5.50
2018-12-14T13:21:18.986Z,5.55
2018-12-14T13:22:18.997Z,5.57
2018-12-14T13:23:19.006Z,5.63
2018-12-14T13:24:19.016Z,5.45
2018-12-14T13:25:19.029Z,5.48
2018-12-14T13:26:19.049Z,5.59
2018-12-14T13:27:20.373Z,5.73